createdAt,value
2022-12-08T00:01:29.231Z,100912.78
2022-12-08T00:03:59.440Z,100905.28
2022-12-08T00:06:49.975Z,100903.66
2022-12-08T00:09:25.336Z,100921.97
2022-12-08T00:12:04.413Z,100899.88
2022-12-08T00:14:34.827Z,100905.75
2022-12-08T00:17:04.370Z,100868.94
2022-12-08T00:19:32.902Z,100885.31
2022-12-08T00:22:00.836Z,100894.81
2022-12-08T00:24:33.231Z,100884.72
2022-12-08T00:27:01.338Z,100883.78
2022-12-08T00:29:28.891Z,100888.19
2022-12-08T00:31:56.253Z,100870.81
2022-12-08T00:34:23.531Z,100876.84
2022-12-08T00:36:51.113Z,100884.97
2022-12-08T00:39:18.946Z,100884.34
2022-12-08T00:42:05.022Z,100865.34
2022-12-08T00:44:32.573Z,100869.44
2022-12-08T00:46:59.892Z,100848.25
2022-12-08T00:49:28.428Z,100875.47
2022-12-08T00:51:56.117Z,100857.25
2022-12-08T00:54:24.537Z,100860.59
2022-12-08T00:56:51.762Z,100860.19
2022-12-08T00:59:19.761Z,100853.34
2022-12-08T01:01:48.535Z,100844.13
2022-12-08T01:04:18.677Z,100849.44
2022-12-08T01:06:46.870Z,100832.22
2022-12-08T01:09:16.077Z,100829.06
2022-12-08T01:11:45.019Z,100838.25
2022-12-08T01:14:13.268Z,100839.56
2022-12-08T01:16:41.832Z,100837.06
2022-12-08T01:19:12.275Z,100844.28
2022-12-08T01:21:45.150Z,100834.69
2022-12-08T01:24:21.493Z,100819.66
2022-12-08T01:26:50.929Z,100827.56
2022-12-08T01:29:18.535Z,100821.34
2022-12-08T01:31:46.716Z,100817.16
2022-12-08T01:34:14.545Z,100814.88
2022-12-08T01:36:42.537Z,100801.59
2022-12-08T01:39:15.968Z,100796.38
2022-12-08T01:41:44.429Z,100800.97
2022-12-08T01:44:11.626Z,100782.84
2022-12-08T01:46:41.541Z,100805.00
2022-12-08T01:49:28.663Z,100809.25
2022-12-08T01:52:03.225Z,100790.78
2022-12-08T01:54:34.865Z,100787.31
2022-12-08T01:57:10.205Z,100811.50
2022-12-08T01:59:45.542Z,100801.34
2022-12-08T02:02:13.400Z,100790.97
2022-12-08T02:04:41.123Z,100781.97
2022-12-08T02:07:10.369Z,100790.16
2022-12-08T02:09:41.037Z,100803.94
2022-12-08T02:12:09.814Z,100811.97
2022-12-08T02:14:37.403Z,100819.31
2022-12-08T02:17:17.859Z,100816.81
2022-12-08T02:20:00.689Z,100794.50
2022-12-08T02:22:50.139Z,100796.84
2022-12-08T02:25:39.241Z,100795.13
2022-12-08T02:28:13.285Z,100793.69
2022-12-08T02:30:53.809Z,100756.09
2022-12-08T02:33:24.299Z,100780.81
2022-12-08T02:36:04.769Z,100766.56
2022-12-08T02:38:51.625Z,100775.81
2022-12-08T02:41:37.493Z,100771.94
2022-12-08T02:44:07.862Z,100781.38
2022-12-08T02:46:42.922Z,100760.06
2022-12-08T02:49:10.476Z,100766.69
2022-12-08T02:51:38.280Z,100764.81
2022-12-08T02:54:05.618Z,100746.84
2022-12-08T02:56:47.081Z,100738.22
2022-12-08T02:59:31.083Z,100749.94
2022-12-08T03:02:07.419Z,100728.38
2022-12-08T03:04:58.961Z,100738.34
2022-12-08T03:07:50.449Z,100741.97
2022-12-08T03:10:36.105Z,100725.41
2022-12-08T03:13:13.341Z,100712.19
2022-12-08T03:15:43.354Z,100723.75
2022-12-08T03:18:14.237Z,100719.28
2022-12-08T03:20:43.120Z,100710.59
2022-12-08T03:23:16.862Z,100692.09
2022-12-08T03:25:52.124Z,100716.19
2022-12-08T03:28:19.598Z,100714.50
2022-12-08T03:30:50.640Z,100708.38
2022-12-08T03:33:29.816Z,100706.25
2022-12-08T03:35:59.591Z,100705.16
2022-12-08T03:38:26.883Z,100702.56
2022-12-08T03:41:13.148Z,100688.78
2022-12-08T03:43:40.491Z,100691.22
2022-12-08T03:46:07.784Z,100689.84
2022-12-08T03:48:35.339Z,100687.38
2022-12-08T03:51:02.609Z,100672.59
2022-12-08T03:53:29.856Z,100682.91
2022-12-08T03:55:57.212Z,100674.38
2022-12-08T03:58:24.895Z,100673.25
2022-12-08T04:00:52.365Z,100679.22
2022-12-08T04:03:20.893Z,100682.75
2022-12-08T04:05:48.499Z,100679.84
2022-12-08T04:08:16.087Z,100663.47
2022-12-08T04:10:43.584Z,100667.41
2022-12-08T04:13:11.031Z,100671.41
2022-12-08T04:15:38.460Z,100664.56
2022-12-08T04:18:06.116Z,100660.81
2022-12-08T04:20:34.826Z,100642.53
2022-12-08T04:23:02.392Z,100649.53
2022-12-08T04:25:29.908Z,100645.03
2022-12-08T04:27:57.155Z,100632.22
2022-12-08T04:30:24.777Z,100630.03
2022-12-08T04:32:52.405Z,100631.31
2022-12-08T04:35:19.802Z,100637.53
2022-12-08T04:37:47.474Z,100628.81
2022-12-08T04:40:15.328Z,100622.72
2022-12-08T04:42:42.801Z,100626.94
2022-12-08T04:45:10.786Z,100566.31
2022-12-08T04:47:38.896Z,100611.16
2022-12-08T04:50:07.633Z,100625.38
2022-12-08T04:52:35.590Z,100578.66
2022-12-08T04:55:04.914Z,100619.31
2022-12-08T04:57:32.444Z,100623.09
2022-12-08T04:59:59.787Z,100618.69
2022-12-08T05:02:27.733Z,100608.44
2022-12-08T05:04:55.371Z,100597.97
2022-12-08T05:07:23.149Z,100604.28
2022-12-08T05:09:50.819Z,100593.09
2022-12-08T05:12:17.972Z,100589.44
2022-12-08T05:14:47.347Z,100592.91
2022-12-08T05:17:18.944Z,100589.34
2022-12-08T05:19:46.259Z,100588.31
2022-12-08T05:22:13.551Z,100575.16
2022-12-08T05:24:47.046Z,100590.09
2022-12-08T05:27:15.096Z,100587.38
2022-12-08T05:29:43.067Z,100580.53
2022-12-08T05:32:10.542Z,100589.13
2022-12-08T05:34:37.861Z,100593.47
2022-12-08T05:37:05.242Z,100590.97
2022-12-08T05:39:32.569Z,100585.75
2022-12-08T05:42:00.740Z,100580.53
2022-12-08T05:44:28.525Z,100567.41
2022-12-08T05:46:55.958Z,100569.28
2022-12-08T05:49:23.532Z,100569.38
2022-12-08T05:51:51.193Z,100573.75
2022-12-08T05:54:18.628Z,100553.41
2022-12-08T05:56:46.873Z,100540.41
2022-12-08T05:59:14.881Z,100552.59
2022-12-08T06:01:42.879Z,100539.44
2022-12-08T06:04:10.693Z,100552.59
2022-12-08T06:06:39.338Z,100540.97
2022-12-08T06:09:07.233Z,100525.91
2022-12-08T06:11:35.118Z,100544.69
2022-12-08T06:14:03.762Z,100548.88
2022-12-08T06:16:31.554Z,100554.22
2022-12-08T06:18:58.954Z,100554.09
2022-12-08T06:21:26.457Z,100563.88
2022-12-08T06:23:54.856Z,100549.16
2022-12-08T06:26:23.074Z,100548.88
2022-12-08T06:28:50.927Z,100552.53
2022-12-08T06:31:24.196Z,100547.69
2022-12-08T06:33:52.393Z,100525.22
2022-12-08T06:36:22.068Z,100531.63
2022-12-08T06:38:49.471Z,100523.53
2022-12-08T06:41:17.875Z,100505.94
2022-12-08T06:43:45.461Z,100518.22
2022-12-08T06:46:15.932Z,100494.91
2022-12-08T06:48:43.874Z,100485.41
2022-12-08T06:51:29.428Z,100533.84
2022-12-08T06:53:56.736Z,100529.28
2022-12-08T06:56:28.781Z,100529.28
2022-12-08T06:58:58.087Z,100518.31
2022-12-08T07:01:25.955Z,100515.72
2022-12-08T07:03:53.550Z,100526.19
2022-12-08T07:06:24.972Z,100517.03
2022-12-08T07:08:52.661Z,100499.88
2022-12-08T07:11:22.050Z,100521.53
2022-12-08T07:13:50.824Z,100499.88
2022-12-08T07:16:18.048Z,100503.22
2022-12-08T07:18:45.571Z,100509.91
2022-12-08T07:21:15.738Z,100513.88
2022-12-08T07:23:45.840Z,100494.97
2022-12-08T07:26:13.695Z,100487.75
2022-12-08T07:28:42.493Z,100488.94
2022-12-08T07:31:22.535Z,100501.94
2022-12-08T07:33:50.689Z,100503.00
2022-12-08T07:36:18.624Z,100490.19
2022-12-08T07:38:46.155Z,100507.91
2022-12-08T07:41:23.318Z,100514.75
2022-12-08T07:43:51.720Z,100520.97
2022-12-08T07:46:21.353Z,100507.91
2022-12-08T07:48:49.145Z,100499.84
2022-12-08T07:51:17.540Z,100508.38
2022-12-08T07:53:53.143Z,100511.91
2022-12-08T07:56:21.181Z,100515.06
2022-12-08T07:58:48.510Z,100508.09
2022-12-08T08:01:35.333Z,100518.91
2022-12-08T08:04:07.764Z,100506.91
2022-12-08T08:06:37.133Z,100516.47
2022-12-08T08:09:04.842Z,100519.19
2022-12-08T08:11:32.078Z,100504.41
2022-12-08T08:13:59.716Z,100499.84
2022-12-08T08:16:27.531Z,100505.94
2022-12-08T08:18:55.586Z,100462.91
2022-12-08T08:21:45.022Z,100500.34
2022-12-08T08:24:35.901Z,100477.69
2022-12-08T08:27:07.607Z,100472.72
2022-12-08T08:29:34.819Z,100472.53
2022-12-08T08:32:06.157Z,100463.31
2022-12-08T08:34:33.315Z,100461.97
2022-12-08T08:37:03.951Z,100452.91
2022-12-08T08:39:32.399Z,100452.53
2022-12-08T08:41:59.697Z,100449.28
2022-12-08T08:44:28.990Z,100460.75
2022-12-08T08:46:56.468Z,100447.03
2022-12-08T08:49:24.346Z,100442.19
2022-12-08T08:51:53.074Z,100409.59
2022-12-08T08:54:20.753Z,100447.50
2022-12-08T08:56:49.788Z,100468.16
2022-12-08T08:59:17.138Z,100460.63
2022-12-08T09:01:46.624Z,100466.91
2022-12-08T09:04:14.869Z,100466.00
2022-12-08T09:06:44.078Z,100460.09
2022-12-08T09:09:12.416Z,100447.59
2022-12-08T09:11:41.648Z,100460.91
2022-12-08T09:14:12.796Z,100454.00
2022-12-08T09:16:42.448Z,100446.28
2022-12-08T09:19:11.645Z,100450.31
2022-12-08T09:21:40.198Z,100444.34
2022-12-08T09:24:08.851Z,100441.75
2022-12-08T09:26:36.430Z,100438.38
2022-12-08T09:29:04.704Z,100426.66
2022-12-08T09:31:32.358Z,100441.94
2022-12-08T09:33:59.917Z,100435.34
2022-12-08T09:36:27.619Z,100442.16
2022-12-08T09:38:56.715Z,100423.28
2022-12-08T09:41:37.936Z,100430.38
2022-12-08T09:44:26.343Z,100424.66
2022-12-08T09:46:56.158Z,100423.66
2022-12-08T09:49:39.457Z,100425.97
2022-12-08T09:52:30.675Z,100398.66
2022-12-08T09:55:01.401Z,100416.38
2022-12-08T09:57:32.699Z,100417.84
2022-12-08T10:00:06.293Z,100423.81
2022-12-08T10:02:34.677Z,100416.28
2022-12-08T10:05:02.566Z,100415.63
2022-12-08T10:08:02.672Z,100407.28
2022-12-08T10:10:36.249Z,100407.16
2022-12-08T10:13:12.756Z,100419.25
2022-12-08T10:15:47.764Z,100418.56
2022-12-08T10:18:32.854Z,100414.38
2022-12-08T10:21:19.759Z,100416.59
2022-12-08T10:23:52.393Z,100407.03
2022-12-08T10:26:22.381Z,100400.16
2022-12-08T10:28:51.446Z,100404.09
2022-12-08T10:31:21.691Z,100404.16
2022-12-08T10:33:57.764Z,100402.31
2022-12-08T10:36:49.150Z,100397.38
2022-12-08T10:39:37.200Z,100387.16
2022-12-08T10:42:22.660Z,100380.47
2022-12-08T10:44:53.194Z,100372.72
2022-12-08T10:47:26.232Z,100330.75
2022-12-08T10:50:12.498Z,100344.63
2022-12-08T10:52:41.329Z,100340.34
2022-12-08T10:55:19.797Z,100340.59
2022-12-08T10:57:49.853Z,100336.19
2022-12-08T11:00:26.487Z,100337.69
2022-12-08T11:02:59.180Z,100346.47
2022-12-08T11:05:34.390Z,100347.28
2022-12-08T11:08:03.331Z,100335.19
2022-12-08T11:10:56.986Z,100328.72
2022-12-08T11:13:27.617Z,100319.16
2022-12-08T11:15:56.367Z,100314.22
2022-12-08T11:18:39.611Z,100300.25
2022-12-08T11:21:14.772Z,100314.78
2022-12-08T11:23:47.645Z,100307.66
2022-12-08T11:26:30.237Z,100256.53
2022-12-08T11:28:57.877Z,100291.72
2022-12-08T11:31:30.823Z,100291.53
2022-12-08T11:33:59.533Z,100290.09
2022-12-08T11:36:30.820Z,100291.91
2022-12-08T11:39:01.401Z,100280.19
2022-12-08T11:41:37.971Z,100281.81
2022-12-08T11:44:24.696Z,100265.66
2022-12-08T11:46:57.434Z,100265.75
2022-12-08T11:49:34.540Z,100265.97
2022-12-08T11:52:30.698Z,100263.47
2022-12-08T11:55:25.669Z,100263.44
2022-12-08T11:57:55.588Z,100256.94
2022-12-08T12:00:23.160Z,100248.22
2022-12-08T12:02:59.156Z,100227.34
2022-12-08T12:06:05.435Z,100255.81
2022-12-08T12:08:54.477Z,100240.88
2022-12-08T12:11:55.474Z,100239.69
2022-12-08T12:14:31.288Z,100231.69
2022-12-08T12:17:05.671Z,100240.53
2022-12-08T12:19:37.962Z,100232.63
2022-12-08T12:22:21.054Z,100229.34
2022-12-08T12:24:51.574Z,100222.41
2022-12-08T12:27:39.633Z,100221.63
2022-12-08T12:30:19.331Z,100199.38
2022-12-08T12:32:53.333Z,100190.72
2022-12-08T12:35:33.258Z,100171.47
2022-12-08T12:38:27.415Z,100161.44
2022-12-08T12:41:08.139Z,100183.78
2022-12-08T12:43:37.874Z,100187.59
2022-12-08T12:46:40.639Z,100192.66
2022-12-08T12:49:40.067Z,100184.94
2022-12-08T12:52:10.912Z,100189.31
2022-12-08T12:54:43.820Z,100176.16
2022-12-08T12:57:11.125Z,100169.31
2022-12-08T12:59:55.784Z,100166.84
2022-12-08T13:02:45.739Z,100167.25
2022-12-08T13:05:25.419Z,100165.41
2022-12-08T13:07:59.131Z,100169.69
2022-12-08T13:10:30.073Z,100156.28
2022-12-08T13:13:12.963Z,100156.47
2022-12-08T13:15:46.874Z,100159.13
2022-12-08T13:18:21.962Z,100142.44
2022-12-08T13:21:16.823Z,100146.13
2022-12-08T13:23:46.304Z,100138.41
2022-12-08T13:26:24.057Z,100142.59
2022-12-08T13:29:01.699Z,100140.13
2022-12-08T13:31:50.174Z,100142.00
2022-12-08T13:34:55.836Z,100136.03
2022-12-08T13:37:31.552Z,100119.16
2022-12-08T13:40:06.064Z,100120.47
2022-12-08T13:42:44.452Z,100112.59
2022-12-08T13:45:25.517Z,100104.66
2022-12-08T13:48:23.283Z,100113.56
2022-12-08T13:57:23.054Z,100111.69
2022-12-08T13:59:50.789Z,100082.03
2022-12-08T14:02:45.350Z,100103.63
2022-12-08T14:05:19.090Z,100096.69
2022-12-08T14:07:52.161Z,100088.97
2022-12-08T14:10:27.870Z,100090.13
2022-12-08T14:13:05.858Z,100092.59
2022-12-08T14:15:38.251Z,100090.47
2022-12-08T14:18:21.514Z,100081.72
2022-12-08T14:21:22.420Z,100086.06
2022-12-08T14:23:51.228Z,100087.94
2022-12-08T14:26:18.903Z,100081.94
2022-12-08T14:28:46.271Z,100077.63
2022-12-08T14:31:14.999Z,100082.84
2022-12-08T14:33:42.873Z,100080.06
2022-12-08T14:36:12.058Z,100082.03
2022-12-08T14:38:39.428Z,100074.16
2022-12-08T14:41:09.647Z,100083.69
2022-12-08T14:43:37.147Z,100093.13
2022-12-08T14:46:19.386Z,100100.16
2022-12-08T14:48:48.086Z,100088.09
2022-12-08T14:51:22.285Z,100066.91
2022-12-08T14:54:20.941Z,100080.31
2022-12-08T14:56:54.083Z,100081.31
2022-12-08T14:59:27.490Z,100079.47
2022-12-08T15:02:22.360Z,100074.28
2022-12-08T15:04:58.038Z,100066.31
2022-12-08T15:07:31.874Z,100076.75
2022-12-08T15:10:17.747Z,100086.13
2022-12-08T15:13:05.965Z,100074.78
2022-12-08T15:16:06.833Z,100087.78
2022-12-08T15:18:40.442Z,100086.91
2022-12-08T15:21:09.603Z,100088.63
2022-12-08T15:23:50.460Z,100071.44
2022-12-08T15:26:27.305Z,100066.22
2022-12-08T15:28:56.344Z,100055.75
2022-12-08T15:31:23.810Z,100047.00
2022-12-08T15:33:51.360Z,100053.31
2022-12-08T15:36:19.048Z,100057.84
2022-12-08T15:38:46.788Z,100043.84
2022-12-08T15:41:15.388Z,100043.94
2022-12-08T15:43:42.896Z,100045.66
2022-12-08T15:46:10.568Z,100037.00
2022-12-08T15:48:38.633Z,100033.44
2022-12-08T15:51:05.951Z,100042.09
2022-12-08T15:53:33.193Z,100036.78
2022-12-08T15:56:26.800Z,100033.31
2022-12-08T15:58:54.633Z,100041.81
2022-12-08T16:01:23.812Z,100040.22
2022-12-08T16:09:42.822Z,100026.09
2022-12-08T16:13:47.901Z,100029.44
2022-12-08T16:18:24.679Z,100025.25
2022-12-08T16:21:22.849Z,100032.25
2022-12-08T16:23:44.573Z,100025.19
2022-12-08T16:29:14.502Z,100023.53
2022-12-08T16:31:42.122Z,100020.91
2022-12-08T16:34:13.025Z,100012.94
2022-12-08T16:36:40.446Z,100022.63
2022-12-08T16:39:08.145Z,100026.19
2022-12-08T16:41:54.424Z,100008.59
2022-12-08T16:44:22.300Z,100018.31
2022-12-08T16:46:49.844Z,100015.78
2022-12-08T16:49:17.699Z,100005.06
2022-12-08T16:51:45.031Z,100017.41
2022-12-08T16:54:12.610Z,100015.69
2022-12-08T16:56:40.006Z,100008.59
2022-12-08T16:59:07.228Z,100007.59
2022-12-08T17:01:34.656Z,100018.00
2022-12-08T17:04:32.762Z,99990.16
2022-12-08T17:06:53.142Z,100003.41
2022-12-08T17:09:20.870Z,99996.44
2022-12-08T17:11:48.220Z,100007.72
2022-12-08T17:14:16.083Z,100003.44
2022-12-08T17:16:44.151Z,99994.88
2022-12-08T17:19:17.538Z,99998.25
2022-12-08T17:21:45.399Z,100000.91
2022-12-08T17:24:17.254Z,99995.66
2022-12-08T17:26:49.505Z,99961.34
2022-12-08T17:29:19.222Z,99999.84
2022-12-08T17:31:47.342Z,99993.75
2022-12-08T17:34:15.480Z,100006.16
2022-12-08T17:36:43.534Z,99995.50
2022-12-08T17:39:18.005Z,100004.28
2022-12-08T17:41:46.420Z,99999.91
2022-12-08T17:44:16.784Z,100007.72
2022-12-08T17:46:50.675Z,100014.75
2022-12-08T17:49:25.747Z,100008.75
2022-12-08T17:51:58.197Z,99988.72
2022-12-08T17:54:28.804Z,100001.97
2022-12-08T17:56:59.119Z,100001.91
2022-12-08T17:59:27.776Z,99990.66
2022-12-08T18:01:56.750Z,99994.00
2022-12-08T18:04:25.318Z,99988.00
2022-12-08T18:06:52.779Z,99995.03
2022-12-08T18:09:20.437Z,99982.78
2022-12-08T18:11:48.557Z,99992.44
2022-12-08T18:14:16.442Z,99982.06
2022-12-08T18:16:46.268Z,99989.00
2022-12-08T18:19:15.708Z,99990.66
2022-12-08T18:21:43.556Z,99982.16
2022-12-08T18:24:19.970Z,99961.88
2022-12-08T18:26:47.680Z,99982.09
2022-12-08T18:29:15.199Z,99971.59
2022-12-08T18:31:42.595Z,99963.81
2022-12-08T18:34:10.024Z,99964.78
2022-12-08T18:36:37.479Z,99963.16
2022-12-08T18:39:10.406Z,99956.22
2022-12-08T18:41:38.042Z,99956.22
2022-12-08T18:44:05.333Z,99957.16
2022-12-08T18:46:32.883Z,99956.31
2022-12-08T18:49:00.739Z,99947.63
2022-12-08T18:51:31.626Z,99944.97
2022-12-08T18:53:59.841Z,99945.97
2022-12-08T18:56:32.665Z,99946.00
2022-12-08T18:59:08.495Z,99924.31
2022-12-08T19:01:38.779Z,99914.59
2022-12-08T19:06:55.993Z,99924.31
2022-12-08T19:09:25.735Z,99912.06
2022-12-08T19:11:54.179Z,99885.78
2022-12-08T19:14:27.773Z,99913.09
2022-12-08T19:16:56.559Z,99914.06
2022-12-08T19:19:24.867Z,99892.84
2022-12-08T19:21:52.603Z,99913.03
2022-12-08T19:24:20.823Z,99898.56
2022-12-08T19:26:48.193Z,99905.56
2022-12-08T19:29:16.633Z,99906.34
2022-12-08T19:31:44.427Z,99898.53
2022-12-08T19:34:14.394Z,99901.22
2022-12-08T19:36:43.350Z,99896.84
2022-12-08T19:39:38.263Z,99895.09
2022-12-08T19:42:36.460Z,99890.94
2022-12-08T19:45:15.800Z,99893.41
2022-12-08T19:47:43.652Z,99898.59
2022-12-08T19:50:36.882Z,99907.28
2022-12-08T19:53:09.619Z,99905.56
2022-12-08T19:55:38.235Z,99912.38
2022-12-08T19:58:06.593Z,99905.31
2022-12-08T20:00:35.214Z,99902.00
2022-12-08T20:03:03.526Z,99914.22
2022-12-08T20:05:31.735Z,99888.88
2022-12-08T20:07:59.098Z,99902.84
2022-12-08T20:10:34.094Z,99904.78
2022-12-08T20:13:21.042Z,99902.78
2022-12-08T20:15:48.854Z,99906.34
2022-12-08T20:18:17.365Z,99886.19
2022-12-08T20:20:46.373Z,99898.72
2022-12-08T20:23:15.536Z,99879.41
2022-12-08T20:25:45.658Z,99900.53
2022-12-08T20:28:13.331Z,99900.34
2022-12-08T20:30:43.105Z,99907.38
2022-12-08T20:33:13.956Z,99896.97
2022-12-08T20:35:43.693Z,99872.53
2022-12-08T20:38:12.078Z,99890.84
2022-12-08T20:40:47.744Z,99902.25
2022-12-08T20:43:15.383Z,99892.69
2022-12-08T20:45:42.695Z,99896.19
2022-12-08T20:48:10.184Z,99904.00
2022-12-08T20:50:37.885Z,99904.78
2022-12-08T20:53:05.581Z,99903.03
2022-12-08T20:55:32.919Z,99897.81
2022-12-08T20:58:00.292Z,99899.66
2022-12-08T21:00:28.261Z,99897.84
2022-12-08T21:02:56.960Z,99906.53
2022-12-08T21:05:25.135Z,99903.97
2022-12-08T21:07:52.921Z,99897.81
2022-12-08T21:10:20.487Z,99902.16
2022-12-08T21:12:47.988Z,99896.16
2022-12-08T21:15:15.533Z,99887.47
2022-12-08T21:17:43.140Z,99881.47
2022-12-08T21:20:11.828Z,99871.75
2022-12-08T21:22:40.541Z,99873.50
2022-12-08T21:25:08.908Z,99869.25
2022-12-08T21:27:38.107Z,99856.09
2022-12-08T21:30:07.182Z,99876.13
2022-12-08T21:32:34.936Z,99869.19
2022-12-08T21:35:03.106Z,99862.28
2022-12-08T21:37:30.790Z,99864.03
2022-12-08T21:39:58.121Z,99865.00
2022-12-08T21:42:44.425Z,99867.63
2022-12-08T21:45:15.496Z,99863.38
2022-12-08T21:47:46.334Z,99839.91
2022-12-08T21:50:15.399Z,99839.63
2022-12-08T21:52:45.779Z,99866.72
2022-12-08T21:55:15.058Z,99809.13
2022-12-08T21:57:42.831Z,99848.50
2022-12-08T22:00:14.783Z,99850.28
2022-12-08T22:02:42.375Z,99848.56
2022-12-08T22:05:10.473Z,99846.81
2022-12-08T22:07:40.435Z,99845.97
2022-12-08T22:10:09.684Z,99839.03
2022-12-08T22:12:38.531Z,99842.50
2022-12-08T22:15:08.042Z,99846.94
2022-12-08T22:17:41.078Z,99842.50
2022-12-08T22:20:12.312Z,99807.66
2022-12-08T22:22:40.562Z,99832.09
2022-12-08T22:25:13.191Z,99828.69
2022-12-08T22:27:41.604Z,99833.13
2022-12-08T22:30:10.314Z,99829.50
2022-12-08T22:32:38.015Z,99827.94
2022-12-08T22:35:05.979Z,99827.94
2022-12-08T22:37:33.362Z,99827.16
2022-12-08T22:40:00.741Z,99821.16
2022-12-08T22:42:28.511Z,99824.56
2022-12-08T22:44:56.148Z,99819.31
2022-12-08T22:47:23.498Z,99832.25
2022-12-08T22:49:50.910Z,99812.19
2022-12-08T22:52:18.234Z,99821.94
2022-12-08T22:54:46.319Z,99819.44
2022-12-08T22:57:13.612Z,99818.41
2022-12-08T22:59:41.417Z,99816.78
2022-12-08T23:02:09.118Z,99807.22
2022-12-08T23:04:37.249Z,99812.38
2022-12-08T23:07:06.046Z,99817.75
2022-12-08T23:09:33.318Z,99812.38
2022-12-08T23:12:01.219Z,99820.28
2022-12-08T23:14:28.760Z,99818.63
2022-12-08T23:16:56.145Z,99807.13
2022-12-08T23:19:23.520Z,99822.06
2022-12-08T23:21:50.893Z,99820.38
2022-12-08T23:24:18.028Z,99823.75
2022-12-08T23:26:47.872Z,99815.19
2022-12-08T23:29:15.457Z,99820.47
2022-12-08T23:31:43.013Z,99818.75
2022-12-08T23:34:11.216Z,99805.84
2022-12-08T23:36:38.564Z,99802.31
2022-12-08T23:39:06.406Z,99806.72
2022-12-08T23:41:33.887Z,99798.13
2022-12-08T23:44:01.001Z,99796.44
2022-12-08T23:46:28.845Z,99799.97
2022-12-08T23:48:56.558Z,99787.78
2022-12-08T23:51:24.111Z,99781.00
2022-12-08T23:53:51.827Z,99773.06
2022-12-08T23:56:22.197Z,99748.72
2022-12-08T23:58:51.835Z,99752.31
